Time;durP1;ratioP1;P1;durP2;ratioP2;P2;SDS_P1;SDS_P2;PMS_P1;PMS_P2;Temp;Humidity;BMP_temperature;BMP_pressure;BME280_temperature;BME280_humidity;BME280_pressure;Samples;Min_cycle;Max_cycle;Signal;HPM_P1;HPM_P2
2023/03/06 00:00:44;;;;;;;;;;;;;;;27.62;49.14;101418.84;5056249;28;65507;-36
2023/03/06 00:03:15;;;;;;;;;;;;;;;27.61;49.03;101419.91;5051044;28;68955;-36
2023/03/06 00:05:46;;;;;;;;;;;;;;;27.59;48.99;101425.47;5046483;28;66162;-38
2023/03/06 00:08:16;;;;;;;;;;;;;;;27.59;48.66;101428.16;5045324;28;69090;-37
2023/03/06 00:10:46;;;;;;;;;;;;;;;27.59;48.89;101433.53;5043672;28;65737;-37
2023/03/06 00:13:20;;;;;;;;;;;;;;;27.60;48.64;101437.91;5054775;28;70494;-41
2023/03/06 00:15:50;;;;;;;;;;;;;;;27.61;48.52;101441.47;5047678;28;66493;-37
2023/03/06 00:18:20;;;;;;;;;;;;;;;27.66;49.17;101446.28;5075123;27;69293;-37
2023/03/06 00:20:51;;;;;;;;;;;;;;;27.67;48.75;101442.56;5068365;27;65310;-36
2023/03/06 00:23:21;;;;;;;;;;;;;;;27.70;49.22;101444.91;5044073;28;69254;-36
2023/03/06 00:25:51;;;;;;;;;;;;;;;27.72;49.56;101442.81;5050015;28;65920;-36
2023/03/06 00:28:21;;;;;;;;;;;;;;;27.74;49.58;101446.19;5079250;27;69648;-36
2023/03/06 00:30:51;;;;;;;;;;;;;;;27.78;49.84;101455.59;5053530;28;66093;-36
2023/03/06 00:33:22;;;;;;;;;;;;;;;27.80;49.70;101450.84;5054001;28;69717;-36
2023/03/06 00:35:54;;;;;;;;;;;;;;;27.82;50.07;101448.81;5046968;28;66972;-35
2023/03/06 00:38:27;;;;;;;;;;;;;;;27.84;50.07;101452.19;5049297;28;70262;-37
2023/03/06 00:40:57;;;;;;;;;;;;;;;27.86;50.19;101458.22;5049054;27;66837;-35
2023/03/06 00:43:29;;;;;;;;;;;;;;;27.86;50.10;101460.94;5027064;28;70104;-36
2023/03/06 00:45:59;;;;;;;;;;;;;;;27.87;50.04;101467.97;5052755;28;66365;-36
2023/03/06 00:48:29;;;;;;;;;;;;;;;27.90;50.28;101467.59;5051038;27;70042;-36
2023/03/06 00:51:00;;;;;;;;;;;;;;;27.91;49.99;101463.88;5040162;28;66819;-36
2023/03/06 00:53:30;;;;;;;;;;;;;;;27.92;49.94;101470.97;5041831;28;69953;-36
2023/03/06 00:56:00;;;;;;;;;;;;;;;27.93;49.81;101472.63;5048877;28;66658;-36
2023/03/06 00:58:36;;;;;;;;;;;;;;;27.94;50.07;101478.84;5089530;27;63742;-36
2023/03/06 01:01:06;;;;;;;;;;;;;;;27.95;49.97;101470.59;5056725;28;65480;-38
2023/03/06 01:03:36;;;;;;;;;;;;;;;27.98;49.87;101482.84;5046926;27;70321;-35
2023/03/06 01:06:07;;;;;;;;;;;;;;;27.98;49.94;101480.16;5067564;27;66691;-38
2023/03/06 01:08:37;;;;;;;;;;;;;;;27.99;50.41;101477.25;5051320;28;70541;-36
2023/03/06 01:11:07;;;;;;;;;;;;;;;28.01;50.48;101477.91;5052540;28;65625;-35
2023/03/06 01:13:37;;;;;;;;;;;;;;;28.03;50.16;101483.97;5051501;28;69725;-36
2023/03/06 01:16:09;;;;;;;;;;;;;;;28.04;50.64;101480.25;5049752;27;65920;-35
2023/03/06 01:18:39;;;;;;;;;;;;;;;28.05;50.69;101475.69;5044829;28;70143;-35
2023/03/06 01:21:10;;;;;;;;;;;;;;;28.07;51.17;101481.72;5052066;27;66014;-36
2023/03/06 01:23:41;;;;;;;;;;;;;;;28.09;51.11;101482.38;5044930;28;70226;-36
2023/03/06 01:26:11;;;;;;;;;;;;;;;28.10;51.74;101483.22;5051757;28;67000;-35
2023/03/06 01:28:42;;;;;;;;;;;;;;;28.12;51.63;101486.56;5058020;28;70212;-37
2023/03/06 01:31:12;;;;;;;;;;;;;;;28.14;51.86;101489.91;5047007;28;66169;-36
2023/03/06 01:33:42;;;;;;;;;;;;;;;28.16;51.93;101493.25;5051330;28;69007;-35
2023/03/06 01:36:14;;;;;;;;;;;;;;;28.17;52.37;101489.56;5048933;27;66954;-35
2023/03/06 01:38:45;;;;;;;;;;;;;;;28.19;52.05;101495.56;5053985;28;70983;-36
2023/03/06 01:41:17;;;;;;;;;;;;;;;28.21;51.46;101496.22;5047602;27;67581;-37
2023/03/06 01:43:47;;;;;;;;;;;;;;;28.23;51.56;101504.97;5044043;28;69957;-36
2023/03/06 01:46:18;;;;;;;;;;;;;;;28.25;51.46;101497.50;5045374;28;66375;-37
2023/03/06 01:48:49;;;;;;;;;;;;;;;28.26;51.61;101510.00;5053402;28;70559;-36
2023/03/06 01:51:20;;;;;;;;;;;;;;;28.28;51.57;101519.56;5048463;27;66413;-36
2023/03/06 01:53:51;;;;;;;;;;;;;;;28.31;51.12;101528.34;5040213;28;69959;-35
2023/03/06 01:56:23;;;;;;;;;;;;;;;28.32;51.34;101520.03;5049290;28;67340;-36
2023/03/06 01:58:54;;;;;;;;;;;;;;;28.35;51.26;101532.31;5039008;28;70748;-36
2023/03/06 02:01:24;;;;;;;;;;;;;;;28.35;51.21;101535.84;5054563;28;66960;-36
2023/03/06 02:03:54;;;;;;;;;;;;;;;28.37;51.20;101539.19;5054703;28;68966;-36
2023/03/06 02:06:25;;;;;;;;;;;;;;;28.39;51.28;101534.47;5048803;28;66267;-36
2023/03/06 02:08:55;;;;;;;;;;;;;;;28.41;51.65;101540.47;5044443;28;70273;-36
2023/03/06 02:11:26;;;;;;;;;;;;;;;28.42;51.48;101539.50;5048580;28;65694;-36
2023/03/06 02:13:56;;;;;;;;;;;;;;;28.45;51.41;101541.81;5042109;27;69962;-36
2023/03/06 02:16:28;;;;;;;;;;;;;;;28.46;51.18;101542.66;5050851;28;66399;-36
2023/03/06 02:19:01;;;;;;;;;;;;;;;28.48;51.64;101546.84;5050561;28;70201;-36
2023/03/06 02:21:33;;;;;;;;;;;;;;;28.49;51.14;101543.13;5042336;28;67273;-36
2023/03/06 02:24:33;;;;;;;;;;;;;;;28.52;51.24;101548.13;5040145;28;70125;-36
2023/03/06 02:27:04;;;;;;;;;;;;;;;28.54;51.55;101555.22;5063712;28;65601;-36
2023/03/06 02:29:35;;;;;;;;;;;;;;;28.57;51.51;101546.75;5058690;28;70135;-37
2023/03/06 02:32:06;;;;;;;;;;;;;;;28.58;51.02;101549.25;5049987;28;66266;-37
2023/03/06 02:34:36;;;;;;;;;;;;;;;28.61;51.01;101556.13;5047112;28;70283;-36
2023/03/06 02:37:07;;;;;;;;;;;;;;;28.63;51.35;101548.69;5046675;28;66433;-36
2023/03/06 02:39:40;;;;;;;;;;;;;;;28.64;51.52;101547.66;5052156;28;69189;-37
2023/03/06 02:42:16;;;;;;;;;;;;;;;28.65;51.17;101542.06;5049411;28;66846;-37
2023/03/06 02:44:47;;;;;;;;;;;;;;;28.68;51.08;101540.84;5051959;28;69524;-37
2023/03/06 02:47:18;;;;;;;;;;;;;;;28.70;51.53;101538.81;5050674;28;67038;-38
2023/03/06 02:49:48;;;;;;;;;;;;;;;28.72;51.11;101525.94;5049643;28;70533;-36
2023/03/06 02:52:19;;;;;;;;;;;;;;;28.74;51.11;101535.53;5051023;28;66102;-37
2023/03/06 02:54:49;;;;;;;;;;;;;;;28.75;51.51;101530.94;5048928;28;69826;-36
2023/03/06 02:57:20;;;;;;;;;;;;;;;28.77;51.12;101528.91;5090818;27;66640;-37
2023/03/06 02:59:50;;;;;;;;;;;;;;;28.80;51.31;101533.09;5046549;28;70301;-37
2023/03/06 03:02:21;;;;;;;;;;;;;;;28.82;51.21;101531.03;5049267;28;65498;-36
2023/03/06 03:04:52;;;;;;;;;;;;;;;28.84;51.52;101526.31;5057407;28;69287;-36
2023/03/06 03:07:23;;;;;;;;;;;;;;;28.85;51.46;101517.16;5048096;28;66728;-38
2023/03/06 03:09:54;;;;;;;;;;;;;;;28.86;51.13;101516.13;5052854;28;70526;-36
2023/03/06 03:12:26;;;;;;;;;;;;;;;28.90;51.49;101517.44;5047854;28;65233;-35
2023/03/06 03:14:57;;;;;;;;;;;;;;;28.91;51.50;101516.38;5053483;27;70782;-37
2023/03/06 03:17:29;;;;;;;;;;;;;;;28.94;51.35;101507.91;5059661;27;66457;-36
2023/03/06 03:20:00;;;;;;;;;;;;;;;28.96;51.29;101514.78;5045580;28;70466;-37
2023/03/06 03:22:30;;;;;;;;;;;;;;;28.99;51.40;101499.22;5052554;28;65683;-37
2023/03/06 03:25:01;;;;;;;;;;;;;;;29.00;51.33;101495.50;5050765;28;70489;-37
2023/03/06 03:27:31;;;;;;;;;;;;;;;29.02;50.81;101494.28;5083244;27;66800;-36
2023/03/06 03:30:03;;;;;;;;;;;;;;;29.05;51.15;101487.69;5056270;28;70337;-35
2023/03/06 03:32:33;;;;;;;;;;;;;;;29.07;51.15;101485.63;5051246;28;66536;-35
2023/03/06 03:35:05;;;;;;;;;;;;;;;29.09;50.83;101488.97;5055187;28;69610;-35
2023/03/06 03:37:36;;;;;;;;;;;;;;;29.12;51.26;101472.38;5045787;28;66946;-37
2023/03/06 03:40:09;;;;;;;;;;;;;;;29.15;50.68;101474.69;5052466;28;69883;-36
2023/03/06 03:42:39;;;;;;;;;;;;;;;29.17;51.08;101464.53;5062807;27;65973;-36
2023/03/06 03:45:10;;;;;;;;;;;;;;;29.19;51.04;101462.44;5048084;27;69994;-36
2023/03/06 03:47:41;;;;;;;;;;;;;;;29.22;50.94;101456.66;5049027;28;66108;-36
2023/03/06 03:50:13;;;;;;;;;;;;;;;29.25;51.06;101458.13;5054567;28;70398;-37
2023/03/06 03:52:44;;;;;;;;;;;;;;;29.26;50.58;101447.13;5043491;28;66221;-36
2023/03/06 03:55:15;;;;;;;;;;;;;;;29.29;50.52;101433.25;5076956;27;70122;-36
2023/03/06 03:57:46;;;;;;;;;;;;;;;29.32;50.76;101435.53;5055645;28;66831;-35
2023/03/06 04:00:16;;;;;;;;;;;;;;;29.35;50.39;101429.75;5052345;28;69488;-36
2023/03/06 04:03:03;;;;;;;;;;;;;;;29.38;50.31;101423.09;5051791;28;66740;-36
2023/03/06 04:05:37;;;;;;;;;;;;;;;29.41;50.32;101411.91;5046853;27;70539;-37
2023/03/06 04:08:09;;;;;;;;;;;;;;;29.43;50.64;101414.41;5042403;28;66359;-36
2023/03/06 04:10:43;;;;;;;;;;;;;;;29.46;50.55;101403.22;5044993;28;70547;-37
2023/03/06 04:13:16;;;;;;;;;;;;;;;29.49;50.68;101400.09;5064368;27;65334;-36
2023/03/06 04:15:48;;;;;;;;;;;;;;;29.53;49.98;101395.97;5058466;28;71037;-36
2023/03/06 04:18:22;;;;;;;;;;;;;;;29.55;50.49;101391.19;5047075;28;65934;-36
2023/03/06 04:20:55;;;;;;;;;;;;;;;29.58;50.35;101385.38;5044607;27;70005;-36
2023/03/06 04:23:26;;;;;;;;;;;;;;;29.60;50.38;101378.75;5051609;28;66218;-35
2023/03/06 04:25:57;;;;;;;;;;;;;;;29.64;50.22;101373.81;5067872;27;69720;-38
2023/03/06 04:28:28;;;;;;;;;;;;;;;29.66;49.77;101366.34;5042368;28;66124;-36
2023/03/06 04:31:00;;;;;;;;;;;;;;;29.69;50.14;101360.53;5048494;28;69495;-37
2023/03/06 04:33:31;;;;;;;;;;;;;;;29.72;49.45;101356.59;5043525;28;66793;-37
2023/03/06 04:36:02;;;;;;;;;;;;;;;29.75;49.98;101359.72;5059938;27;70087;-36
2023/03/06 04:38:34;;;;;;;;;;;;;;;29.78;49.49;101347.66;5083322;27;66431;-37
2023/03/06 04:41:05;;;;;;;;;;;;;;;29.80;49.38;101335.59;5055766;28;69243;-36
2023/03/06 04:43:38;;;;;;;;;;;;;;;29.83;49.21;101329.78;5048123;28;67142;-37
2023/03/06 04:46:10;;;;;;;;;;;;;;;29.87;49.17;101324.00;5046907;28;69990;-36
2023/03/06 04:48:40;;;;;;;;;;;;;;;29.90;49.21;101323.59;5050198;27;66947;-36
2023/03/06 04:51:13;;;;;;;;;;;;;;;29.92;49.16;101322.34;5045184;28;69785;-36
2023/03/06 04:53:44;;;;;;;;;;;;;;;29.96;49.08;101306.53;5047492;27;66499;-37
2023/03/06 04:56:14;;;;;;;;;;;;;;;29.98;49.16;101301.78;5043431;28;70790;-36
2023/03/06 04:58:45;;;;;;;;;;;;;;;30.02;49.33;101300.31;5041417;27;66572;-35
2023/03/06 05:01:15;;;;;;;;;;;;;;;30.04;49.43;101292.84;5047729;28;69777;-35
2023/03/06 05:03:46;;;;;;;;;;;;;;;30.07;49.05;101287.00;5043063;27;66136;-36
2023/03/06 05:06:16;;;;;;;;;;;;;;;30.09;48.98;101276.81;5045939;28;70166;-37
2023/03/06 05:08:46;;;;;;;;;;;;;;;30.13;48.99;101280.78;5050343;27;66855;-36
2023/03/06 05:11:16;;;;;;;;;;;;;;;30.15;48.95;101278.69;5048018;28;70051;-37
2023/03/06 05:13:47;;;;;;;;;;;;;;;30.19;48.98;101261.00;5051242;28;66164;-36
2023/03/06 05:16:17;;;;;;;;;;;;;;;30.21;49.11;101267.03;5047802;28;71038;-36
2023/03/06 05:18:47;;;;;;;;;;;;;;;30.23;48.86;101258.78;5049956;28;66408;-36
2023/03/06 05:21:19;;;;;;;;;;;;;;;30.26;48.72;101253.75;5049405;27;70413;-35
2023/03/06 05:23:49;;;;;;;;;;;;;;;30.26;48.58;101253.75;5055129;28;66583;-36
2023/03/06 05:26:19;;;;;;;;;;;;;;;30.28;48.46;101240.88;5049746;28;69818;-37
2023/03/06 05:28:49;;;;;;;;;;;;;;;30.32;48.74;101240.44;5054357;28;67326;-37
2023/03/06 05:31:20;;;;;;;;;;;;;;;30.33;48.50;101236.69;5050624;28;70098;-36
2023/03/06 05:33:51;;;;;;;;;;;;;;;30.36;48.68;101236.28;5046732;28;66854;-37
2023/03/06 05:36:35;;;;;;;;;;;;;;;30.36;48.75;101228.16;5050746;27;69737;-36
2023/03/06 05:39:08;;;;;;;;;;;;;;;30.37;48.67;101227.97;5045437;28;66274;-37
2023/03/06 05:41:39;;;;;;;;;;;;;;;30.38;48.34;101220.66;5043563;28;69725;-36
2023/03/06 05:44:09;;;;;;;;;;;;;;;30.38;48.00;101207.13;5049099;27;66673;-37
2023/03/06 05:46:39;;;;;;;;;;;;;;;30.39;48.49;101208.78;5050376;28;69358;-35
2023/03/06 05:49:09;;;;;;;;;;;;;;;30.40;48.70;101202.34;5043601;28;66001;-36
2023/03/06 05:51:46;;;;;;;;;;;;;;;30.41;48.71;101195.88;5042748;28;69016;-35
2023/03/06 05:54:20;;;;;;;;;;;;;;;30.43;47.98;101189.22;5057086;28;66003;-36
2023/03/06 05:56:50;;;;;;;;;;;;;;;30.44;48.35;101184.63;5044361;28;70259;-37
2023/03/06 05:59:20;;;;;;;;;;;;;;;30.46;48.32;101174.44;5058609;28;65604;-36
2023/03/06 06:01:50;;;;;;;;;;;;;;;30.48;48.50;101165.06;5055070;28;70071;-36
2023/03/06 06:04:21;;;;;;;;;;;;;;;30.50;48.14;101162.97;5058825;27;67026;-35
2023/03/06 06:06:56;;;;;;;;;;;;;;;30.55;48.53;101154.22;5055592;28;69991;-38
2023/03/06 06:09:27;;;;;;;;;;;;;;;30.58;48.11;101152.97;5056298;28;65316;-36
2023/03/06 06:11:59;;;;;;;;;;;;;;;30.59;47.83;101144.63;5054014;27;70935;-36
2023/03/06 06:14:29;;;;;;;;;;;;;;;30.61;47.94;101137.13;5059041;28;66934;-36
2023/03/06 06:17:00;;;;;;;;;;;;;;;30.63;47.79;101135.03;5049876;27;70358;-40
2023/03/06 06:19:30;;;;;;;;;;;;;;;30.66;48.31;101129.19;5093283;27;66998;-37
2023/03/06 06:22:03;;;;;;;;;;;;;;;30.68;47.73;101137.94;5050945;28;68989;-37
2023/03/06 06:24:34;;;;;;;;;;;;;;;30.70;47.69;101130.44;5047904;28;66729;-36
2023/03/06 06:27:04;;;;;;;;;;;;;;;30.72;47.62;101133.75;5056161;28;70288;-37
2023/03/06 06:29:35;;;;;;;;;;;;;;;30.75;47.58;101123.53;5052684;27;67246;-38
2023/03/06 06:32:05;;;;;;;;;;;;;;;30.77;47.55;101119.56;5047801;27;69860;-35
2023/03/06 06:34:35;;;;;;;;;;;;;;;30.79;47.59;101116.66;5056163;28;67130;-36
2023/03/06 06:37:06;;;;;;;;;;;;;;;30.82;47.75;101132.53;5058172;27;69932;-37
2023/03/06 06:39:36;;;;;;;;;;;;;;;30.82;47.60;101121.69;5060603;28;66634;-37
2023/03/06 06:42:08;;;;;;;;;;;;;;;30.85;47.32;101102.28;5061151;27;70352;-34
2023/03/06 06:44:59;;;;;;;;;;;;;;;30.86;47.17;101102.06;5057971;28;66243;-38
2023/03/06 06:47:29;;;;;;;;;;;;;;;30.90;47.77;101099.78;5048681;28;70499;-36
2023/03/06 06:50:00;;;;;;;;;;;;;;;30.91;47.25;101099.53;5061078;28;66243;-36
2023/03/06 06:52:31;;;;;;;;;;;;;;;30.94;47.64;101092.88;5054208;28;71601;-37
2023/03/06 06:55:01;;;;;;;;;;;;;;;30.96;47.70;101085.38;5057596;27;65755;-36
2023/03/06 06:57:31;;;;;;;;;;;;;;;30.99;47.28;101089.53;5050291;28;69130;-37
2023/03/06 07:00:02;;;;;;;;;;;;;;;31.02;47.61;101084.50;5056561;28;67148;-36
2023/03/06 07:02:32;;;;;;;;;;;;;;;31.03;47.20;101077.19;5054689;28;69765;-36
2023/03/06 07:05:03;;;;;;;;;;;;;;;31.06;47.18;101072.16;5050211;28;65497;-37
2023/03/06 07:07:34;;;;;;;;;;;;;;;31.07;47.14;101068.41;5053533;28;69759;-37
2023/03/06 07:10:11;;;;;;;;;;;;;;;31.10;47.54;101065.28;5050955;28;66677;-36
2023/03/06 07:12:42;;;;;;;;;;;;;;;31.12;46.91;101055.06;5049099;27;69042;-36
2023/03/06 07:15:13;;;;;;;;;;;;;;;31.14;47.09;101055.66;5054936;28;67006;-37
2023/03/06 07:17:44;;;;;;;;;;;;;;;31.18;46.90;101045.22;5047689;28;68972;-37
2023/03/06 07:20:18;;;;;;;;;;;;;;;31.22;46.74;101045.59;5044590;28;65991;-36
2023/03/06 07:22:48;;;;;;;;;;;;;;;31.23;46.90;101047.25;5047282;28;70242;-38
2023/03/06 07:25:20;;;;;;;;;;;;;;;31.25;46.97;101046.00;5045836;28;66034;-38
2023/03/06 07:27:51;;;;;;;;;;;;;;;31.29;46.71;101032.84;5048906;28;70525;-37
2023/03/06 07:30:22;;;;;;;;;;;;;;;31.32;46.48;101040.53;5053938;28;66077;-38
2023/03/06 07:32:54;;;;;;;;;;;;;;;31.35;46.98;101045.53;5060547;28;70750;-37
2023/03/06 07:35:24;;;;;;;;;;;;;;;31.36;46.89;101030.94;5050215;28;65925;-37
2023/03/06 07:37:55;;;;;;;;;;;;;;;31.39;46.71;101035.91;5057498;28;70406;-36
2023/03/06 07:40:25;;;;;;;;;;;;;;;31.42;46.44;101035.47;5050308;28;65961;-36
2023/03/06 07:42:56;;;;;;;;;;;;;;;31.46;46.41;101038.59;5055851;28;69077;-38
2023/03/06 07:45:57;;;;;;;;;;;;;;;31.49;46.51;101020.00;5072814;27;66025;-37
2023/03/06 07:48:27;;;;;;;;;;;;;;;31.51;46.01;101028.75;5053642;28;70273;-37
2023/03/06 07:50:59;;;;;;;;;;;;;;;31.55;46.27;101018.28;5050169;28;66866;-37
2023/03/06 07:53:30;;;;;;;;;;;;;;;31.58;45.93;101018.66;5082763;27;69532;-36
2023/03/06 07:56:07;;;;;;;;;;;;;;;31.61;46.10;101017.38;5063032;28;66223;-36
2023/03/06 07:58:38;;;;;;;;;;;;;;;31.66;46.07;101016.72;5052988;27;69727;-36
2023/03/06 08:01:10;;;;;;;;;;;;;;;31.68;45.94;101023.59;5045262;28;65353;-36
2023/03/06 08:03:41;;;;;;;;;;;;;;;31.73;45.99;101014.78;5054313;28;69233;-37
2023/03/06 08:06:16;;;;;;;;;;;;;;;31.76;45.77;101012.47;5056745;28;65881;-37
2023/03/06 08:08:46;;;;;;;;;;;;;;;31.80;45.90;101015.56;5046672;28;69378;-37
2023/03/06 08:11:18;;;;;;;;;;;;;;;31.84;45.64;101016.75;5053461;27;66082;-38
2023/03/06 08:13:48;;;;;;;;;;;;;;;31.86;45.81;101009.22;5055664;28;69193;-36
2023/03/06 08:16:19;;;;;;;;;;;;;;;31.88;45.62;101020.69;5059692;28;66843;-37
2023/03/06 08:18:50;;;;;;;;;;;;;;;31.92;45.65;101002.94;5050252;28;69281;-37
2023/03/06 08:21:22;;;;;;;;;;;;;;;31.93;45.47;101003.75;5051132;28;67052;-36
2023/03/06 08:23:53;;;;;;;;;;;;;;;31.96;45.29;101003.34;5053943;27;70704;-37
2023/03/06 08:26:24;;;;;;;;;;;;;;;31.97;44.90;101003.09;5046337;28;66142;-36
2023/03/06 08:28:56;;;;;;;;;;;;;;;32.00;45.10;101002.63;5050484;28;70261;-36
2023/03/06 08:31:26;;;;;;;;;;;;;;;32.03;45.14;101009.50;5053748;28;65302;-37
2023/03/06 08:33:57;;;;;;;;;;;;;;;32.04;45.15;101000.31;5046766;28;70617;-35
2023/03/06 08:36:27;;;;;;;;;;;;;;;32.07;45.02;101004.44;5046295;27;66020;-36
2023/03/06 08:38:58;;;;;;;;;;;;;;;32.11;44.94;101011.09;5056431;28;69220;-37
2023/03/06 08:41:29;;;;;;;;;;;;;;;32.13;44.85;101006.28;5051257;27;66687;-37
2023/03/06 08:43:59;;;;;;;;;;;;;;;32.15;45.01;101007.72;5051693;28;69409;-37
2023/03/06 08:46:29;;;;;;;;;;;;;;;32.16;44.97;101009.34;5043146;28;66840;-36
2023/03/06 08:49:00;;;;;;;;;;;;;;;32.20;44.94;101009.72;5052727;28;69781;-37
2023/03/06 08:51:30;;;;;;;;;;;;;;;32.22;44.82;101011.16;5054593;27;66719;-37
2023/03/06 08:54:00;;;;;;;;;;;;;;;32.25;44.94;101018.03;5051469;28;69571;-37
2023/03/06 08:56:32;;;;;;;;;;;;;;;32.26;44.57;101014.25;5057658;28;66065;-36
2023/03/06 08:59:03;;;;;;;;;;;;;;;32.27;44.68;101021.34;5049448;28;69230;-37
2023/03/06 09:01:36;;;;;;;;;;;;;;;32.31;44.73;101005.44;5052846;28;65287;-36
2023/03/06 09:04:08;;;;;;;;;;;;;;;32.32;44.60;101023.38;5048563;28;70079;-36
2023/03/06 09:06:40;;;;;;;;;;;;;;;32.34;44.51;101023.97;5042392;28;66826;-37
2023/03/06 09:09:12;;;;;;;;;;;;;;;32.35;44.56;101018.34;5052662;28;70645;-38
2023/03/06 09:11:42;;;;;;;;;;;;;;;32.39;44.54;101018.69;5048114;27;66623;-37
2023/03/06 09:14:13;;;;;;;;;;;;;;;32.40;44.44;101032.06;5052357;28;69351;-36
2023/03/06 09:16:44;;;;;;;;;;;;;;;32.42;44.61;101039.97;5055556;28;66384;-37
2023/03/06 09:19:14;;;;;;;;;;;;;;;32.41;44.56;101038.31;5049995;28;69733;-38
2023/03/06 09:21:44;;;;;;;;;;;;;;;32.15;46.17;101039.41;5049511;28;65958;-37
2023/03/06 09:24:15;;;;;;;;;;;;;;;31.98;46.89;101050.88;5045477;28;69786;-39
2023/03/06 09:26:46;;;;;;;;;;;;;;;31.85;47.84;101050.97;5041721;28;65780;-37
2023/03/06 09:29:19;;;;;;;;;;;;;;;31.76;48.12;101047.72;5047297;28;69949;-39
2023/03/06 09:31:49;;;;;;;;;;;;;;;31.72;48.31;101046.50;5048203;28;66165;-38
2023/03/06 09:34:19;;;;;;;;;;;;;;;31.69;48.89;101051.53;5085399;27;69890;-39
2023/03/06 09:36:51;;;;;;;;;;;;;;;31.66;49.02;101054.69;5038713;28;66378;-39
2023/03/06 09:39:25;;;;;;;;;;;;;;;31.64;49.26;101059.50;5074227;27;69215;-36
2023/03/06 09:41:57;;;;;;;;;;;;;;;31.63;49.45;101060.56;5053201;28;65720;-38
2023/03/06 09:44:29;;;;;;;;;;;;;;;31.60;49.82;101065.38;5045127;27;69314;-37
2023/03/06 09:46:59;;;;;;;;;;;;;;;31.57;49.67;101071.25;5059996;27;64797;-37
2023/03/06 09:49:32;;;;;;;;;;;;;;;31.56;50.19;101072.28;5047872;28;68772;-37
2023/03/06 09:52:03;;;;;;;;;;;;;;;31.54;50.25;101071.69;5047299;27;65908;-37
2023/03/06 09:54:56;;;;;;;;;;;;;;;31.51;50.21;101074.84;5047454;28;70615;-37
2023/03/06 09:57:28;;;;;;;;;;;;;;;31.49;50.17;101068.81;5044076;27;66994;-38
2023/03/06 10:00:00;;;;;;;;;;;;;;;31.51;50.79;101074.84;5044270;28;69863;-38
2023/03/06 10:02:37;;;;;;;;;;;;;;;31.52;50.37;101083.78;5046873;28;66530;-37
2023/03/06 10:05:12;;;;;;;;;;;;;;;31.48;50.29;101088.84;5045303;27;69522;-38
2023/03/06 10:07:46;;;;;;;;;;;;;;;31.47;50.64;101087.16;5046210;27;66227;-37
2023/03/06 10:10:21;;;;;;;;;;;;;;;31.46;50.07;101090.94;5043835;27;70089;-39
2023/03/06 10:12:55;;;;;;;;;;;;;;;31.43;50.24;101085.94;5041544;28;66868;-38
2023/03/06 10:15:27;;;;;;;;;;;;;;;31.42;50.07;101084.28;5043592;28;70920;-35
2023/03/06 10:17:57;;;;;;;;;;;;;;;31.23;50.19;101056.25;5044250;28;66376;-37
2023/03/06 10:20:32;;;;;;;;;;;;;;;31.37;50.18;101084.09;5041374;28;70291;-38
2023/03/06 10:23:23;;;;;;;;;;;;;;;31.36;50.23;101079.72;5046469;28;66663;-40
2023/03/06 10:25:53;;;;;;;;;;;;;;;31.35;50.27;101081.59;5047066;28;69721;-37
2023/03/06 10:28:28;;;;;;;;;;;;;;;31.33;50.82;101086.38;5053738;28;65596;-38
2023/03/06 10:30:58;;;;;;;;;;;;;;;31.33;50.90;101090.97;5046600;28;70518;-37
2023/03/06 10:33:43;;;;;;;;;;;;;;;31.35;51.21;101088.91;5043468;28;67087;-38
2023/03/06 10:36:15;;;;;;;;;;;;;;;31.35;51.24;101083.47;5042493;28;69439;-37
2023/03/06 10:38:47;;;;;;;;;;;;;;;31.35;51.59;101081.59;5077524;27;66941;-37
2023/03/06 10:41:21;;;;;;;;;;;;;;;31.37;52.26;101081.38;5043801;28;70006;-36
2023/03/06 10:44:00;;;;;;;;;;;;;;;31.36;52.69;101085.16;5044709;27;67050;-37
2023/03/06 10:46:33;;;;;;;;;;;;;;;31.37;52.42;101086.81;5044944;28;70071;-36
2023/03/06 10:49:07;;;;;;;;;;;;;;;31.36;51.94;101090.56;5046459;28;65872;-38
2023/03/06 10:51:38;;;;;;;;;;;;;;;31.34;51.90;101098.91;5048119;28;69201;-37
2023/03/06 10:54:08;;;;;;;;;;;;;;;31.34;52.96;101114.31;5046876;27;66532;-37
2023/03/06 10:56:40;;;;;;;;;;;;;;;31.34;53.30;101112.47;5053065;28;70107;-37
2023/03/06 10:59:12;;;;;;;;;;;;;;;31.31;53.93;101110.16;5046251;28;66547;-37
2023/03/06 11:01:44;;;;;;;;;;;;;;;31.28;53.88;101117.91;5044305;28;70520;-38
2023/03/06 11:04:25;;;;;;;;;;;;;;;31.27;53.71;101121.66;5054362;28;65697;-37
2023/03/06 11:07:04;;;;;;;;;;;;;;;31.26;54.44;101123.56;5046769;28;70554;-38
2023/03/06 11:09:35;;;;;;;;;;;;;;;31.24;53.85;101124.81;5054888;28;66475;-36
2023/03/06 11:12:24;;;;;;;;;;;;;;;31.24;53.42;101130.25;5052264;28;69568;-37
2023/03/06 11:15:09;;;;;;;;;;;;;;;31.23;52.96;101139.41;5056063;28;65406;-38
2023/03/06 11:17:59;;;;;;;;;;;;;;;31.20;53.01;101143.38;5049149;28;70376;-40
2023/03/06 11:20:39;;;;;;;;;;;;;;;31.27;53.11;101133.34;5055295;28;66004;-39
2023/03/06 11:23:22;;;;;;;;;;;;;;;31.39;52.35;101138.94;5052412;28;69616;-39
2023/03/06 11:26:04;;;;;;;;;;;;;;;31.47;52.03;101141.38;5052972;28;67346;-37
2023/03/06 11:28:58;;;;;;;;;;;;;;;31.56;51.71;101150.06;5051036;28;70203;-38
2023/03/06 11:31:30;;;;;;;;;;;;;;;31.59;51.36;101150.50;5049879;27;66810;-39
2023/03/06 11:34:01;;;;;;;;;;;;;;;31.61;51.32;101147.53;5046442;28;70056;-41
2023/03/06 11:36:34;;;;;;;;;;;;;;;31.63;50.52;101150.06;5048655;27;66895;-38
2023/03/06 11:39:15;;;;;;;;;;;;;;;31.64;50.98;101149.00;5042492;28;69905;-39
2023/03/06 11:41:56;;;;;;;;;;;;;;;31.65;50.74;101156.06;5061386;27;65940;-39
2023/03/06 11:44:42;;;;;;;;;;;;;;;31.64;50.95;101157.13;5053866;27;69764;-40
2023/03/06 11:47:19;;;;;;;;;;;;;;;31.64;50.63;101163.38;5047476;28;66653;-39
2023/03/06 11:49:52;;;;;;;;;;;;;;;31.64;50.93;101165.25;5048447;28;69963;-38
2023/03/06 11:52:25;;;;;;;;;;;;;;;31.64;50.60;101174.22;5039485;28;66310;-38
2023/03/06 11:54:56;;;;;;;;;;;;;;;31.63;50.81;101175.28;5049226;27;70315;-38
2023/03/06 11:57:40;;;;;;;;;;;;;;;31.64;50.85;101173.41;5052630;28;66536;-39
2023/03/06 12:00:16;;;;;;;;;;;;;;;31.61;50.87;101170.06;5085545;27;69545;-39
2023/03/06 12:02:56;;;;;;;;;;;;;;;31.61;51.03;101180.09;5066970;27;65563;-37
2023/03/06 12:05:36;;;;;;;;;;;;;;;31.60;50.56;101179.25;5049784;28;69352;-38
2023/03/06 12:08:24;;;;;;;;;;;;;;;31.60;50.80;101173.84;5045228;28;66243;-40
2023/03/06 12:11:14;;;;;;;;;;;;;;;31.57;50.60;101177.00;5051834;28;69879;-39
2023/03/06 12:14:07;;;;;;;;;;;;;;;31.54;50.71;101169.28;5046486;28;66286;-39
2023/03/06 12:16:51;;;;;;;;;;;;;;;31.55;50.73;101172.84;5050588;27;68814;-39
2023/03/06 12:19:42;;;;;;;;;;;;;;;31.43;51.94;101177.28;5046851;28;65770;-37
2023/03/06 12:22:33;;;;;;;;;;;;;;;31.35;52.46;101173.75;5052050;28;70459;-37
2023/03/06 12:25:15;;;;;;;;;;;;;;;31.36;52.00;101182.72;5048107;27;65239;-40
2023/03/06 12:27:57;;;;;;;;;;;;;;;31.37;51.84;101181.69;5043885;28;69857;-38
2023/03/06 12:30:31;;;;;;;;;;;;;;;31.30;52.61;101191.69;5042936;28;66598;-39
2023/03/06 12:33:01;;;;;;;;;;;;;;;31.25;53.47;101196.94;5044020;27;70092;-39
2023/03/06 12:35:43;;;;;;;;;;;;;;;31.20;53.19;101199.44;5044782;28;66362;-38
2023/03/06 12:38:31;;;;;;;;;;;;;;;31.17;53.13;101206.13;5049862;28;70014;-38
2023/03/06 12:41:11;;;;;;;;;;;;;;;31.15;53.69;101211.78;5047782;27;67583;-40
2023/03/06 12:44:01;;;;;;;;;;;;;;;31.13;53.29;101216.56;5052944;28;70101;-40
2023/03/06 12:46:33;;;;;;;;;;;;;;;31.11;53.32;101223.25;5049620;27;67049;-37
2023/03/06 12:49:03;;;;;;;;;;;;;;;31.10;54.53;101222.44;5046990;28;70644;-38
2023/03/06 12:51:35;;;;;;;;;;;;;;;31.16;56.14;101221.56;5053216;28;66800;-37
2023/03/06 12:54:06;;;;;;;;;;;;;;;31.12;56.97;101225.75;5054419;28;69660;-38
2023/03/06 12:56:38;;;;;;;;;;;;;;;31.04;55.87;101223.28;5054167;28;66247;-38
2023/03/06 12:59:29;;;;;;;;;;;;;;;30.93;56.39;101232.06;5044930;28;69776;-37
2023/03/06 13:02:23;;;;;;;;;;;;;;;30.73;55.46;101235.63;5053175;27;65634;-37
2023/03/06 13:05:11;;;;;;;;;;;;;;;30.51;52.62;101239.63;5049070;27;70024;-38